createdAt,value
2022-12-27T00:01:39.308Z,2.00
2022-12-27T00:04:07.826Z,1.90
2022-12-27T00:06:36.323Z,1.70
2022-12-27T00:09:06.942Z,1.90
2022-12-27T00:11:35.680Z,1.60
2022-12-27T00:14:05.093Z,1.80
2022-12-27T00:16:34.109Z,2.00
2022-12-27T00:19:02.905Z,2.07
2022-12-27T00:21:32.602Z,2.10
2022-12-27T00:24:01.954Z,2.33
2022-12-27T00:26:33.190Z,1.80
2022-12-27T00:29:01.750Z,1.93
2022-12-27T00:31:31.950Z,1.63
2022-12-27T00:34:02.773Z,1.80
2022-12-27T00:36:32.437Z,1.47
2022-12-27T00:39:01.721Z,1.70
2022-12-27T00:41:31.688Z,1.77
2022-12-27T00:44:00.245Z,1.73
2022-12-27T00:46:28.784Z,1.57
2022-12-27T00:48:58.604Z,1.73
2022-12-27T00:51:27.600Z,1.63
2022-12-27T00:53:56.317Z,1.60
2022-12-27T00:56:26.587Z,1.83
2022-12-27T00:58:57.315Z,1.60
2022-12-27T01:01:27.029Z,1.67
2022-12-27T01:03:55.826Z,1.80
2022-12-27T01:06:25.871Z,1.53
2022-12-27T01:08:55.596Z,2.63
2022-12-27T01:11:24.435Z,1.60
2022-12-27T01:13:53.029Z,1.70
2022-12-27T01:16:24.052Z,2.17
2022-12-27T01:18:52.681Z,1.57
2022-12-27T01:21:22.127Z,1.37
2022-12-27T01:23:51.258Z,1.67
2022-12-27T01:26:21.122Z,1.80
2022-12-27T01:28:50.148Z,1.47
2022-12-27T01:31:19.783Z,1.43
2022-12-27T01:33:50.085Z,1.67
2022-12-27T01:36:19.461Z,1.80
2022-12-27T01:38:49.078Z,1.57
2022-12-27T01:41:36.599Z,2.43
2022-12-27T01:44:20.046Z,1.90
2022-12-27T01:46:48.581Z,2.30
2022-12-27T01:49:18.504Z,1.80
2022-12-27T01:51:47.355Z,1.70
2022-12-27T01:54:16.014Z,2.00
2022-12-27T01:56:44.832Z,2.00
2022-12-27T01:59:15.496Z,1.50
2022-12-27T02:01:45.141Z,2.20
2022-12-27T02:04:16.200Z,1.23
2022-12-27T02:06:46.637Z,2.20
2022-12-27T02:09:18.541Z,2.13
2022-12-27T02:11:52.329Z,2.03
2022-12-27T02:14:26.174Z,2.00
2022-12-27T02:16:57.174Z,2.00
2022-12-27T02:19:30.790Z,1.50
2022-12-27T02:22:23.077Z,1.17
2022-12-27T02:24:56.169Z,1.50
2022-12-27T02:27:32.558Z,1.50
2022-12-27T02:30:03.678Z,1.83
2022-12-27T02:32:35.272Z,1.80
2022-12-27T02:35:07.478Z,1.90
2022-12-27T02:37:39.057Z,1.80
2022-12-27T02:40:26.960Z,1.57
2022-12-27T02:43:13.334Z,1.70
2022-12-27T02:46:04.194Z,1.90
2022-12-27T02:48:50.849Z,1.67
2022-12-27T02:51:45.205Z,1.67
2022-12-27T02:54:21.802Z,1.90
2022-12-27T02:57:10.917Z,2.30
2022-12-27T03:00:07.844Z,2.00
2022-12-27T03:02:59.975Z,1.90
2022-12-27T03:05:33.384Z,1.97
2022-12-27T03:08:03.742Z,1.97
2022-12-27T03:10:53.685Z,1.90
2022-12-27T03:13:45.985Z,2.07
2022-12-27T03:16:18.292Z,2.00
2022-12-27T03:19:03.809Z,1.90
2022-12-27T03:21:51.297Z,2.23
2022-12-27T03:24:34.921Z,2.00
2022-12-27T03:27:05.629Z,2.30
2022-12-27T03:29:52.116Z,2.10
2022-12-27T03:32:38.992Z,1.93
2022-12-27T03:35:11.997Z,2.10
2022-12-27T03:38:00.026Z,2.10
2022-12-27T03:40:34.479Z,2.10
2022-12-27T03:43:10.754Z,1.90
2022-12-27T03:46:11.457Z,2.20
2022-12-27T03:48:44.229Z,2.00
2022-12-27T03:51:16.562Z,1.60
2022-12-27T03:53:46.808Z,1.50
2022-12-27T03:56:15.557Z,1.90
2022-12-27T03:58:44.138Z,1.87
2022-12-27T04:01:12.801Z,2.10
2022-12-27T04:03:41.506Z,1.80
2022-12-27T04:06:10.144Z,1.90
2022-12-27T04:08:58.216Z,1.83
2022-12-27T04:11:44.274Z,1.70
2022-12-27T04:14:30.589Z,1.87
2022-12-27T04:17:17.077Z,1.60
2022-12-27T04:20:03.234Z,1.70
2022-12-27T04:22:49.720Z,2.07
2022-12-27T04:25:37.528Z,1.83
2022-12-27T04:28:24.084Z,1.70
2022-12-27T04:31:10.564Z,2.13
2022-12-27T04:33:57.067Z,1.50
2022-12-27T04:36:25.698Z,1.63
2022-12-27T04:38:54.243Z,1.97
2022-12-27T04:41:41.972Z,2.10
2022-12-27T04:44:28.560Z,1.70
2022-12-27T04:47:15.157Z,1.70
2022-12-27T04:50:01.461Z,1.60
2022-12-27T04:52:48.083Z,1.93
2022-12-27T04:55:20.053Z,1.80
2022-12-27T04:57:50.085Z,1.60
2022-12-27T05:00:36.872Z,1.73
2022-12-27T05:03:06.624Z,2.10
2022-12-27T05:05:35.571Z,2.27
2022-12-27T05:08:22.492Z,2.10
2022-12-27T05:11:08.910Z,2.00
2022-12-27T05:13:56.671Z,1.73
2022-12-27T05:16:25.260Z,1.73
2022-12-27T05:18:53.855Z,1.60
2022-12-27T05:21:22.800Z,1.80
2022-12-27T05:24:09.146Z,2.00
2022-12-27T05:26:38.433Z,2.23
2022-12-27T05:29:09.210Z,1.63
2022-12-27T05:31:37.864Z,1.80
2022-12-27T05:34:06.644Z,1.70
2022-12-27T05:36:35.415Z,2.00
2022-12-27T05:39:04.157Z,2.10
2022-12-27T05:41:32.721Z,1.90
2022-12-27T05:44:06.855Z,1.67
2022-12-27T05:46:37.202Z,1.70
2022-12-27T05:49:05.828Z,1.50
2022-12-27T05:51:34.429Z,1.83
2022-12-27T05:54:03.013Z,1.70
2022-12-27T05:56:31.569Z,1.60
2022-12-27T05:59:01.374Z,1.60
2022-12-27T06:01:30.279Z,1.60
2022-12-27T06:04:00.270Z,1.70
2022-12-27T06:06:28.918Z,1.80
2022-12-27T06:08:57.500Z,1.60
2022-12-27T06:11:26.091Z,1.50
2022-12-27T06:13:55.778Z,2.17
2022-12-27T06:16:24.745Z,1.50
2022-12-27T06:18:53.329Z,1.77
2022-12-27T06:21:23.296Z,1.70
2022-12-27T06:23:52.258Z,1.60
2022-12-27T06:26:21.841Z,1.50
2022-12-27T06:28:50.690Z,1.47
2022-12-27T06:31:19.959Z,1.50
2022-12-27T06:33:48.798Z,1.73
2022-12-27T06:36:18.348Z,1.80
2022-12-27T06:38:48.588Z,2.00
2022-12-27T06:41:19.011Z,1.77
2022-12-27T06:43:48.127Z,1.57
2022-12-27T06:46:18.348Z,1.63
2022-12-27T06:48:47.783Z,1.63
2022-12-27T06:51:17.190Z,1.90
2022-12-27T06:53:45.806Z,1.83
2022-12-27T06:56:16.887Z,1.70
2022-12-27T06:58:45.801Z,1.60
2022-12-27T07:01:15.294Z,2.17
2022-12-27T07:03:44.080Z,1.77
2022-12-27T07:06:13.368Z,1.63
2022-12-27T07:08:41.989Z,1.70
2022-12-27T07:11:11.621Z,1.53
2022-12-27T07:13:42.419Z,1.40
2022-12-27T07:16:12.262Z,1.50
2022-12-27T07:18:41.169Z,1.90
2022-12-27T07:21:10.494Z,1.90
2022-12-27T07:23:39.520Z,2.07
2022-12-27T07:26:09.420Z,1.50
2022-12-27T07:28:38.329Z,1.60
2022-12-27T07:31:09.288Z,2.17
2022-12-27T07:33:38.326Z,1.87
2022-12-27T07:36:07.668Z,2.10
2022-12-27T07:38:36.262Z,1.70
2022-12-27T07:41:04.852Z,1.70
2022-12-27T07:43:33.994Z,1.87
2022-12-27T07:46:06.065Z,1.63
2022-12-27T07:48:36.075Z,1.93
2022-12-27T07:51:04.815Z,2.53
2022-12-27T07:53:33.475Z,2.10
2022-12-27T07:56:06.565Z,1.90
2022-12-27T07:58:37.521Z,2.10
2022-12-27T08:01:06.503Z,2.10
2022-12-27T08:03:36.702Z,1.70
2022-12-27T08:06:05.815Z,1.73
2022-12-27T08:08:37.982Z,1.70
2022-12-27T08:11:06.986Z,2.13
2022-12-27T08:13:35.706Z,2.23
2022-12-27T08:16:04.644Z,2.10
2022-12-27T08:18:33.264Z,2.20
2022-12-27T08:21:03.162Z,1.97
2022-12-27T08:23:32.106Z,2.30
2022-12-27T08:26:00.894Z,2.20
2022-12-27T08:28:31.553Z,2.10
2022-12-27T08:31:00.969Z,2.27
2022-12-27T08:33:29.688Z,2.60
2022-12-27T08:35:58.604Z,2.53
2022-12-27T08:38:28.503Z,2.53
2022-12-27T08:40:57.150Z,2.47
2022-12-27T08:43:25.766Z,2.47
2022-12-27T08:45:54.462Z,2.10
2022-12-27T08:48:23.225Z,2.30
2022-12-27T08:50:51.837Z,2.13
2022-12-27T08:53:20.426Z,2.40
2022-12-27T08:55:50.373Z,1.90
2022-12-27T08:58:19.019Z,2.53
2022-12-27T09:00:47.625Z,2.33
2022-12-27T09:03:16.315Z,2.53
2022-12-27T09:05:44.931Z,2.23
2022-12-27T09:08:13.662Z,2.20
2022-12-27T09:10:42.248Z,2.00
2022-12-27T09:13:12.192Z,2.10
2022-12-27T09:15:41.069Z,1.97
2022-12-27T09:18:11.177Z,2.30
2022-12-27T09:20:39.779Z,2.00
2022-12-27T09:23:08.302Z,2.17
2022-12-27T09:25:37.023Z,2.30
2022-12-27T09:28:06.462Z,2.13
2022-12-27T09:30:36.410Z,2.40
2022-12-27T09:33:05.052Z,2.57
2022-12-27T09:35:38.461Z,2.00
2022-12-27T09:38:07.289Z,2.30
2022-12-27T09:40:35.910Z,1.70
2022-12-27T09:43:18.137Z,1.70
2022-12-27T09:45:52.122Z,2.03
2022-12-27T09:48:31.061Z,1.70
2022-12-27T09:51:02.678Z,1.90
2022-12-27T09:53:37.980Z,2.20
2022-12-27T09:56:06.798Z,1.80
2022-12-27T09:58:42.803Z,2.33
2022-12-27T10:01:20.330Z,2.23
2022-12-27T10:03:49.216Z,1.80
2022-12-27T10:06:25.069Z,2.20
2022-12-27T10:08:56.591Z,2.10
2022-12-27T10:11:39.203Z,1.77
2022-12-27T10:14:14.654Z,1.60
2022-12-27T10:16:50.011Z,1.50
2022-12-27T10:19:22.957Z,1.53
2022-12-27T10:21:58.492Z,1.77
2022-12-27T10:24:30.266Z,1.50
2022-12-27T10:26:58.884Z,1.60
2022-12-27T10:29:28.040Z,1.77
2022-12-27T10:31:57.986Z,2.00
2022-12-27T10:34:26.639Z,1.97
2022-12-27T10:36:55.436Z,1.67
2022-12-27T10:39:28.342Z,1.50
2022-12-27T10:42:01.830Z,1.60
2022-12-27T10:44:30.701Z,1.67
2022-12-27T10:47:01.139Z,1.93
2022-12-27T10:49:30.299Z,1.80
2022-12-27T10:52:00.897Z,1.90
2022-12-27T10:54:30.694Z,1.70
2022-12-27T10:57:17.311Z,1.90
2022-12-27T10:59:46.945Z,1.90
2022-12-27T11:02:21.054Z,1.80
2022-12-27T11:04:59.833Z,1.80
2022-12-27T11:07:32.896Z,1.60
2022-12-27T11:10:09.225Z,1.63
2022-12-27T11:12:38.120Z,1.77
2022-12-27T11:15:08.147Z,1.97
2022-12-27T11:17:39.453Z,1.80
2022-12-27T11:20:20.579Z,1.97
2022-12-27T11:22:52.115Z,2.07
2022-12-27T11:25:21.130Z,1.67
2022-12-27T11:27:52.777Z,2.00
2022-12-27T11:30:23.675Z,2.07
2022-12-27T11:32:54.469Z,1.87
2022-12-27T11:35:24.134Z,1.60
2022-12-27T11:37:53.347Z,1.87
2022-12-27T11:40:23.910Z,1.80
2022-12-27T11:42:54.690Z,1.50
2022-12-27T11:45:25.589Z,1.60
2022-12-27T11:47:58.380Z,2.30
2022-12-27T11:50:35.872Z,1.83
2022-12-27T11:53:19.371Z,2.27
2022-12-27T11:56:07.599Z,1.90
2022-12-27T11:58:51.052Z,2.07
2022-12-27T12:01:35.328Z,1.60
2022-12-27T12:04:18.862Z,1.57
2022-12-27T12:06:55.800Z,1.70
2022-12-27T12:09:31.297Z,1.77
2022-12-27T12:12:06.401Z,1.90
2022-12-27T12:14:53.603Z,1.47
2022-12-27T12:17:36.105Z,1.77
2022-12-27T12:20:23.421Z,1.70
2022-12-27T12:23:02.233Z,1.77
2022-12-27T12:25:45.955Z,1.57
2022-12-27T12:28:56.883Z,1.50
2022-12-27T12:31:25.864Z,1.90
2022-12-27T12:34:11.090Z,1.40
2022-12-27T12:36:52.946Z,1.60
2022-12-27T12:39:29.993Z,1.50
2022-12-27T12:42:04.691Z,2.10
2022-12-27T12:44:57.081Z,1.70
2022-12-27T12:47:33.191Z,1.20
2022-12-27T12:50:22.575Z,1.40
2022-12-27T12:53:08.976Z,1.40
2022-12-27T12:55:45.980Z,1.93
2022-12-27T12:58:32.227Z,1.37
2022-12-27T13:01:14.154Z,1.50
2022-12-27T13:04:03.320Z,1.70
2022-12-27T13:06:40.809Z,1.40
2022-12-27T13:09:16.766Z,1.30
2022-12-27T13:11:56.085Z,1.37
2022-12-27T13:14:33.441Z,1.20
2022-12-27T13:17:03.776Z,1.40
2022-12-27T13:19:39.401Z,1.13
2022-12-27T13:22:12.514Z,1.57
2022-12-27T13:24:47.569Z,1.30
2022-12-27T13:27:23.084Z,1.60
2022-12-27T13:29:54.822Z,1.40
2022-12-27T13:32:27.254Z,1.60
2022-12-27T13:35:03.109Z,1.60
2022-12-27T13:37:41.950Z,1.50
2022-12-27T13:40:23.827Z,1.20
2022-12-27T13:43:16.689Z,1.33
2022-12-27T13:45:51.850Z,1.60
2022-12-27T13:48:40.794Z,1.53
2022-12-27T13:51:14.908Z,1.63
2022-12-27T13:53:57.744Z,1.47
2022-12-27T13:59:32.754Z,1.50
2022-12-27T14:02:14.307Z,1.50
2022-12-27T14:04:59.358Z,1.33
2022-12-27T14:07:35.639Z,1.23
2022-12-27T14:10:17.994Z,1.77
2022-12-27T14:12:56.931Z,1.40
2022-12-27T14:15:28.694Z,1.60
2022-12-27T14:18:05.368Z,1.53
2022-12-27T14:20:44.186Z,1.53
2022-12-27T14:23:22.565Z,1.40
2022-12-27T14:26:03.653Z,1.73
2022-12-27T14:28:53.450Z,1.30
2022-12-27T14:31:48.293Z,1.30
2022-12-27T14:34:27.643Z,1.67
2022-12-27T14:37:06.177Z,1.30
2022-12-27T14:40:01.853Z,1.30
2022-12-27T14:42:41.234Z,1.43
2022-12-27T14:45:29.468Z,1.53
2022-12-27T14:48:18.948Z,1.27
2022-12-27T14:50:58.135Z,1.80
2022-12-27T14:53:44.536Z,1.30
2022-12-27T14:56:19.929Z,1.60
2022-12-27T14:58:52.818Z,1.20
2022-12-27T15:01:27.643Z,1.70
2022-12-27T15:04:00.746Z,1.33
2022-12-27T15:06:50.696Z,1.37
2022-12-27T15:09:24.636Z,1.53
2022-12-27T15:11:58.342Z,1.70
2022-12-27T15:14:33.873Z,1.80
2022-12-27T15:17:09.058Z,1.77
2022-12-27T15:19:45.459Z,1.90
2022-12-27T15:22:21.862Z,1.70
2022-12-27T15:24:54.424Z,2.20
2022-12-27T15:27:26.212Z,1.97
2022-12-27T15:30:04.480Z,1.60
2022-12-27T15:32:37.598Z,1.70
2022-12-27T15:35:16.515Z,1.73
2022-12-27T15:38:01.897Z,1.63
2022-12-27T15:40:40.511Z,1.63
2022-12-27T15:43:16.464Z,1.53
2022-12-27T15:45:49.769Z,1.60
2022-12-27T15:48:46.090Z,1.80
2022-12-27T15:51:25.428Z,1.80
2022-12-27T15:54:05.583Z,1.60
2022-12-27T15:56:41.991Z,1.93
2022-12-27T15:59:29.025Z,1.80
2022-12-27T16:02:16.064Z,1.53
2022-12-27T16:04:49.001Z,1.73
2022-12-27T16:07:36.100Z,1.73
2022-12-27T16:10:19.582Z,1.37
2022-12-27T16:12:50.375Z,1.77
2022-12-27T16:15:37.620Z,1.70
2022-12-27T16:18:06.817Z,1.63
2022-12-27T16:20:35.465Z,1.40
2022-12-27T16:23:06.159Z,1.40
2022-12-27T16:25:36.126Z,1.50
2022-12-27T16:28:07.755Z,1.53
2022-12-27T16:30:46.847Z,1.80
2022-12-27T16:33:31.378Z,1.70
2022-12-27T16:36:24.416Z,1.60
2022-12-27T16:38:58.228Z,1.50
2022-12-27T16:41:35.245Z,1.90
2022-12-27T16:44:16.080Z,1.67
2022-12-27T16:46:59.707Z,1.53
2022-12-27T16:49:33.311Z,1.70
2022-12-27T16:52:21.781Z,1.97
2022-12-27T16:54:53.815Z,1.90
2022-12-27T16:57:46.345Z,2.00
2022-12-27T17:00:45.111Z,1.83
2022-12-27T17:03:31.380Z,1.60
2022-12-27T17:09:05.622Z,1.50
2022-12-27T17:11:34.844Z,1.27
2022-12-27T17:14:04.438Z,1.70
2022-12-27T17:16:39.185Z,1.80
2022-12-27T17:19:09.351Z,1.60
2022-12-27T17:21:39.990Z,1.60
2022-12-27T17:24:09.343Z,1.90
2022-12-27T17:26:49.580Z,1.90
2022-12-27T17:29:29.607Z,1.80
2022-12-27T17:32:03.205Z,1.67
2022-12-27T17:34:37.329Z,1.53
2022-12-27T17:37:14.995Z,1.70
2022-12-27T17:39:54.873Z,1.53
2022-12-27T17:42:46.510Z,1.93
2022-12-27T17:45:20.815Z,2.03
2022-12-27T17:48:04.960Z,2.07
2022-12-27T17:50:33.862Z,2.10
2022-12-27T17:53:38.095Z,1.70
2022-12-27T17:56:39.379Z,2.30
2022-12-27T17:59:09.642Z,2.13
2022-12-27T18:01:40.695Z,2.13
2022-12-27T18:04:09.596Z,1.70
2022-12-27T18:06:39.725Z,1.67
2022-12-27T18:09:09.023Z,1.73
2022-12-27T18:11:38.960Z,1.77
2022-12-27T18:14:07.940Z,1.80
2022-12-27T18:16:39.129Z,1.50
2022-12-27T18:19:08.005Z,1.47
2022-12-27T18:21:36.546Z,1.83
2022-12-27T18:24:19.390Z,1.70
2022-12-27T18:26:49.342Z,1.87
2022-12-27T18:29:17.929Z,1.90
2022-12-27T18:31:49.880Z,1.50
2022-12-27T18:34:23.205Z,1.90
2022-12-27T18:36:53.572Z,2.00
2022-12-27T18:39:29.337Z,1.90
2022-12-27T18:41:59.971Z,2.73
2022-12-27T18:44:29.746Z,2.10
2022-12-27T18:46:59.478Z,2.27
2022-12-27T18:49:30.242Z,1.97
2022-12-27T18:51:59.115Z,2.17
2022-12-27T18:54:33.830Z,2.00
2022-12-27T18:57:04.725Z,1.67
2022-12-27T18:59:34.369Z,1.80
2022-12-27T19:02:04.064Z,2.53
2022-12-27T19:04:33.612Z,2.37
2022-12-27T19:07:10.584Z,1.97
2022-12-27T19:09:40.596Z,2.00
2022-12-27T19:12:20.546Z,2.17
2022-12-27T19:14:49.493Z,1.80
2022-12-27T19:17:19.935Z,1.70
2022-12-27T19:19:49.459Z,2.07
2022-12-27T19:22:38.741Z,2.23
2022-12-27T19:25:09.019Z,1.90
2022-12-27T19:27:38.919Z,1.87
2022-12-27T19:30:07.994Z,2.23
2022-12-27T19:32:36.993Z,1.90
2022-12-27T19:35:06.476Z,1.90
2022-12-27T19:37:35.695Z,2.10
2022-12-27T19:40:06.359Z,1.73
2022-12-27T19:42:35.736Z,1.93
2022-12-27T19:45:05.774Z,2.50
2022-12-27T19:47:35.861Z,2.03
2022-12-27T19:50:04.411Z,1.97
2022-12-27T19:52:33.061Z,1.60
2022-12-27T19:55:03.603Z,1.30
2022-12-27T19:57:32.299Z,1.57
2022-12-27T20:00:04.072Z,1.40
2022-12-27T20:02:37.035Z,1.63
2022-12-27T20:05:05.790Z,1.50
2022-12-27T20:07:34.409Z,1.43
2022-12-27T20:10:03.108Z,1.47
2022-12-27T20:12:31.718Z,1.50
2022-12-27T20:15:01.304Z,1.50
2022-12-27T20:17:32.443Z,1.47
2022-12-27T20:20:02.464Z,1.30
2022-12-27T20:22:31.061Z,1.40
2022-12-27T20:24:59.593Z,1.30
2022-12-27T20:27:28.151Z,1.77
2022-12-27T20:29:56.751Z,1.47
2022-12-27T20:32:25.321Z,1.33
2022-12-27T20:34:53.942Z,1.47
2022-12-27T20:37:24.906Z,1.50
2022-12-27T20:39:53.700Z,1.60
2022-12-27T20:42:23.700Z,1.60
2022-12-27T20:44:52.402Z,1.20
2022-12-27T20:47:20.969Z,1.50
2022-12-27T20:49:49.529Z,1.77
2022-12-27T20:52:18.135Z,1.47
2022-12-27T20:54:48.101Z,1.63
2022-12-27T20:57:16.662Z,2.00
2022-12-27T20:59:45.186Z,1.33
2022-12-27T21:02:14.042Z,1.37
2022-12-27T21:04:42.902Z,1.33
2022-12-27T21:07:11.500Z,1.40
2022-12-27T21:09:40.161Z,1.47
2022-12-27T21:12:10.259Z,1.50
2022-12-27T21:14:38.886Z,1.30
2022-12-27T21:17:07.696Z,1.30
2022-12-27T21:19:36.394Z,1.40
2022-12-27T21:22:05.044Z,1.37
2022-12-27T21:24:33.612Z,1.23
2022-12-27T21:27:02.204Z,1.13
2022-12-27T21:29:32.380Z,1.30
2022-12-27T21:32:01.440Z,1.20
2022-12-27T21:34:30.100Z,1.30
2022-12-27T21:37:01.199Z,1.43
2022-12-27T21:39:30.333Z,1.23
2022-12-27T21:41:58.944Z,1.20
2022-12-27T21:44:27.622Z,1.30
2022-12-27T21:46:57.537Z,1.30
2022-12-27T21:49:26.080Z,1.13
2022-12-27T21:51:55.680Z,1.73
2022-12-27T21:54:24.639Z,1.53
2022-12-27T21:56:53.190Z,1.10
2022-12-27T21:59:21.755Z,1.13
2022-12-27T22:01:52.389Z,1.47
2022-12-27T22:04:23.020Z,1.10
2022-12-27T22:06:51.650Z,1.33
2022-12-27T22:09:20.265Z,1.30
2022-12-27T22:11:49.292Z,1.40
2022-12-27T22:14:21.969Z,1.13
2022-12-27T22:16:53.666Z,1.27
2022-12-27T22:19:23.556Z,1.23
2022-12-27T22:21:52.080Z,1.40
2022-12-27T22:24:20.682Z,1.37
2022-12-27T22:26:50.198Z,0.90
2022-12-27T22:29:19.404Z,1.47
2022-12-27T22:31:48.000Z,1.30
2022-12-27T22:34:16.577Z,1.17
2022-12-27T22:36:46.497Z,1.07
2022-12-27T22:39:15.108Z,1.13
2022-12-27T22:41:43.690Z,1.00
2022-12-27T22:44:13.427Z,1.53
2022-12-27T22:47:15.648Z,1.40
2022-12-27T22:49:31.016Z,1.30
2022-12-27T22:52:00.914Z,1.13
2022-12-27T22:55:05.688Z,1.07
2022-12-27T22:57:17.997Z,1.00
2022-12-27T22:59:46.623Z,1.00
2022-12-27T23:02:15.255Z,0.90
2022-12-27T23:04:44.335Z,1.00
2022-12-27T23:07:14.376Z,1.20
2022-12-27T23:09:43.806Z,0.97
2022-12-27T23:12:12.619Z,1.00
2022-12-27T23:14:41.493Z,1.00
2022-12-27T23:17:10.124Z,0.97
2022-12-27T23:19:38.745Z,0.90
2022-12-27T23:22:07.754Z,1.00
2022-12-27T23:24:37.685Z,1.03
2022-12-27T23:27:06.211Z,1.07
2022-12-27T23:29:34.756Z,1.00
2022-12-27T23:32:03.406Z,0.97
2022-12-27T23:34:32.050Z,1.30
2022-12-27T23:37:01.018Z,1.30
2022-12-27T23:39:29.755Z,1.13
2022-12-27T23:41:59.645Z,1.10
2022-12-27T23:44:33.800Z,1.00
2022-12-27T23:47:04.189Z,1.20
2022-12-27T23:49:32.947Z,1.20
2022-12-27T23:52:01.476Z,1.10
2022-12-27T23:54:30.093Z,1.17
2022-12-27T23:57:19.642Z,1.17
2022-12-27T23:59:49.216Z,1.20
